createdAt,value
2023-03-20T00:01:55.802Z,100891.31
2023-03-20T00:04:23.459Z,100898.28
2023-03-20T00:06:51.184Z,100901.03
2023-03-20T00:09:19.311Z,100884.88
2023-03-20T00:11:49.565Z,100888.97
2023-03-20T00:14:18.757Z,100891.69
2023-03-20T00:16:48.876Z,100900.69
2023-03-20T00:19:19.232Z,100893.84
2023-03-20T00:21:48.012Z,100899.78
2023-03-20T00:24:16.709Z,100905.31
2023-03-20T00:26:45.789Z,100896.38
2023-03-20T00:29:16.960Z,100890.22
2023-03-20T00:31:45.082Z,100903.84
2023-03-20T00:34:15.152Z,100894.72
2023-03-20T00:36:44.651Z,100885.81
2023-03-20T00:39:12.294Z,100895.00
2023-03-20T00:41:43.359Z,100901.69
2023-03-20T00:44:22.448Z,100895.66
2023-03-20T00:46:52.144Z,100875.03
2023-03-20T00:49:28.264Z,100886.75
2023-03-20T00:51:58.240Z,100882.19
2023-03-20T00:54:26.112Z,100885.03
2023-03-20T00:56:57.378Z,100869.22
2023-03-20T00:59:27.014Z,100867.06
2023-03-20T01:01:54.759Z,100869.50
2023-03-20T01:04:36.344Z,100862.66
2023-03-20T01:07:06.196Z,100852.66
2023-03-20T01:09:34.591Z,100867.00
2023-03-20T01:12:02.770Z,100880.19
2023-03-20T01:14:30.569Z,100892.44
2023-03-20T01:17:01.232Z,100890.53
2023-03-20T01:19:28.917Z,100881.06
2023-03-20T01:21:56.883Z,100894.38
2023-03-20T01:24:26.261Z,100893.94
2023-03-20T01:26:54.806Z,100901.69
2023-03-20T01:29:24.690Z,100908.09
2023-03-20T01:31:53.483Z,100916.66
2023-03-20T01:34:21.479Z,100914.84
2023-03-20T01:36:52.391Z,100920.72
2023-03-20T01:39:21.931Z,100915.41
2023-03-20T01:41:52.092Z,100924.22
2023-03-20T01:44:22.512Z,100922.22
2023-03-20T01:46:51.371Z,100931.16
2023-03-20T01:49:56.232Z,100932.09
2023-03-20T01:52:23.943Z,100942.38
2023-03-20T01:54:51.921Z,100933.59
2023-03-20T01:57:23.020Z,100925.59
2023-03-20T01:59:52.930Z,100917.59
2023-03-20T02:02:22.897Z,100918.94
2023-03-20T02:04:53.774Z,100908.84
2023-03-20T02:07:23.075Z,100921.69
2023-03-20T02:09:51.238Z,100915.63
2023-03-20T02:12:19.544Z,100917.47
2023-03-20T02:14:49.386Z,100925.03
2023-03-20T02:17:17.068Z,100920.44
2023-03-20T02:19:53.452Z,100928.75
2023-03-20T02:22:54.710Z,100933.44
2023-03-20T02:25:45.404Z,100927.41
2023-03-20T02:28:34.698Z,100945.19
2023-03-20T02:31:17.930Z,100939.97
2023-03-20T02:34:17.434Z,100941.44
2023-03-20T02:37:21.974Z,100950.59
2023-03-20T02:39:57.654Z,100937.97
2023-03-20T02:42:33.770Z,100925.38
2023-03-20T02:45:05.700Z,100928.59
2023-03-20T02:47:38.967Z,100918.38
2023-03-20T02:50:14.908Z,100917.22
2023-03-20T02:52:48.779Z,100928.56
2023-03-20T02:55:18.514Z,100923.97
2023-03-20T02:57:52.953Z,100928.06
2023-03-20T03:00:26.441Z,100918.16
2023-03-20T03:02:59.484Z,100924.47
2023-03-20T03:05:31.994Z,100925.41
2023-03-20T03:08:01.794Z,100923.53
2023-03-20T03:10:31.917Z,100926.38
2023-03-20T03:13:00.439Z,100926.25
2023-03-20T03:15:30.720Z,100919.44
2023-03-20T03:17:59.460Z,100914.50
2023-03-20T03:20:30.825Z,100934.72
2023-03-20T03:22:58.640Z,100909.81
2023-03-20T03:25:29.862Z,100906.22
2023-03-20T03:28:03.614Z,100904.06
2023-03-20T03:30:32.802Z,100896.16
2023-03-20T03:33:11.162Z,100884.34
2023-03-20T03:35:39.575Z,100889.97
2023-03-20T03:38:19.466Z,100892.28
2023-03-20T03:40:54.337Z,100891.69
2023-03-20T03:43:26.519Z,100879.91
2023-03-20T03:45:56.505Z,100882.19
2023-03-20T03:48:27.577Z,100877.63
2023-03-20T03:50:57.439Z,100867.75
2023-03-20T03:53:27.666Z,100868.44
2023-03-20T03:55:59.821Z,100858.66
2023-03-20T03:58:30.572Z,100885.91
2023-03-20T04:00:59.826Z,100884.66
2023-03-20T04:03:31.612Z,100878.06
2023-03-20T04:06:00.043Z,100880.44
2023-03-20T04:08:27.843Z,100885.22
2023-03-20T04:10:56.963Z,100881.44
2023-03-20T04:13:24.636Z,100887.69
2023-03-20T04:15:52.439Z,100886.19
2023-03-20T04:18:20.704Z,100888.53
2023-03-20T04:20:48.867Z,100889.09
2023-03-20T04:23:16.996Z,100882.84
2023-03-20T04:25:44.656Z,100881.50
2023-03-20T04:28:16.366Z,100866.19
2023-03-20T04:30:48.234Z,100866.38
2023-03-20T04:33:16.472Z,100869.06
2023-03-20T04:35:44.200Z,100876.91
2023-03-20T04:38:11.911Z,100872.19
2023-03-20T04:40:39.562Z,100870.16
2023-03-20T04:43:07.554Z,100872.94
2023-03-20T04:45:36.958Z,100856.91
2023-03-20T04:48:05.182Z,100853.88
2023-03-20T04:50:32.855Z,100873.81
2023-03-20T04:53:00.775Z,100863.59
2023-03-20T04:55:28.394Z,100875.00
2023-03-20T04:57:56.042Z,100880.31
2023-03-20T05:00:23.765Z,100881.94
2023-03-20T05:02:53.129Z,100870.59
2023-03-20T05:05:20.803Z,100869.97
2023-03-20T05:07:48.483Z,100863.84
2023-03-20T05:10:16.549Z,100858.47
2023-03-20T05:12:44.209Z,100868.34
2023-03-20T05:15:12.553Z,100861.91
2023-03-20T05:17:40.409Z,100859.91
2023-03-20T05:20:11.033Z,100861.69
2023-03-20T05:22:38.668Z,100865.44
2023-03-20T05:25:07.111Z,100884.97
2023-03-20T05:27:34.896Z,100866.72
2023-03-20T05:30:02.566Z,100851.75
2023-03-20T05:32:30.380Z,100874.78
2023-03-20T05:34:58.016Z,100869.97
2023-03-20T05:37:27.121Z,100863.50
2023-03-20T05:39:54.982Z,100877.53
2023-03-20T05:42:22.626Z,100882.03
2023-03-20T05:44:50.270Z,100874.59
2023-03-20T05:47:17.912Z,100888.00
2023-03-20T05:49:45.614Z,100892.13
2023-03-20T05:52:13.375Z,100890.09
2023-03-20T05:54:42.431Z,100892.22
2023-03-20T05:57:10.034Z,100888.59
2023-03-20T05:59:37.689Z,100886.44
2023-03-20T06:02:05.317Z,100878.34
2023-03-20T06:04:33.076Z,100874.44
2023-03-20T06:07:00.732Z,100877.13
2023-03-20T06:09:28.805Z,100887.69
2023-03-20T06:11:57.846Z,100893.97
2023-03-20T06:14:25.784Z,100884.84
2023-03-20T06:16:54.096Z,100881.63
2023-03-20T06:19:21.784Z,100889.94
2023-03-20T06:21:49.877Z,100892.53
2023-03-20T06:24:17.882Z,100899.94
2023-03-20T06:26:45.660Z,100900.00
2023-03-20T06:29:14.941Z,100900.06
2023-03-20T06:31:42.727Z,100903.84
2023-03-20T06:34:10.438Z,100897.66
2023-03-20T06:36:38.176Z,100911.16
2023-03-20T06:39:06.475Z,100905.00
2023-03-20T06:41:35.153Z,100893.81
2023-03-20T06:44:03.749Z,100902.69
2023-03-20T06:46:33.078Z,100895.72
2023-03-20T06:49:01.380Z,100899.91
2023-03-20T06:51:29.080Z,100918.59
2023-03-20T06:53:56.749Z,100905.75
2023-03-20T06:56:24.749Z,100917.41
2023-03-20T06:58:52.409Z,100913.25
2023-03-20T07:01:20.717Z,100917.41
2023-03-20T07:03:50.504Z,100931.13
2023-03-20T07:06:18.904Z,100938.78
2023-03-20T07:08:46.635Z,100940.81
2023-03-20T07:11:14.418Z,100936.56
2023-03-20T07:13:42.144Z,100936.13
2023-03-20T07:16:10.462Z,100947.50
2023-03-20T07:18:38.427Z,100937.31
2023-03-20T07:21:09.704Z,100935.72
2023-03-20T07:23:37.816Z,100946.72
2023-03-20T07:26:06.783Z,100946.38
2023-03-20T07:28:34.494Z,100943.47
2023-03-20T07:31:02.217Z,100938.41
2023-03-20T07:33:29.932Z,100940.94
2023-03-20T07:35:57.689Z,100951.25
2023-03-20T07:38:26.837Z,100952.28
2023-03-20T07:40:55.360Z,100942.25
2023-03-20T07:43:23.256Z,100948.69
2023-03-20T07:45:51.655Z,100957.19
2023-03-20T07:48:19.381Z,100937.78
2023-03-20T07:50:47.052Z,100941.22
2023-03-20T07:53:14.907Z,100945.84
2023-03-20T07:55:45.135Z,100954.53
2023-03-20T07:58:12.800Z,100949.97
2023-03-20T08:00:40.776Z,100937.25
2023-03-20T08:03:09.078Z,100951.47
2023-03-20T08:05:37.268Z,100957.00
2023-03-20T08:08:05.758Z,100952.94
2023-03-20T08:10:33.773Z,100949.44
2023-03-20T08:13:02.877Z,100949.13
2023-03-20T08:15:30.944Z,100955.13
2023-03-20T08:17:58.859Z,100960.13
2023-03-20T08:20:27.209Z,100947.41
2023-03-20T08:22:54.914Z,100944.06
2023-03-20T08:25:22.699Z,100943.09
2023-03-20T08:27:50.768Z,100969.44
2023-03-20T08:30:19.998Z,100958.94
2023-03-20T08:32:47.978Z,100967.88
2023-03-20T08:35:31.470Z,100942.44
2023-03-20T08:38:03.898Z,100948.69
2023-03-20T08:40:32.184Z,100948.13
2023-03-20T08:42:59.930Z,100943.38
2023-03-20T08:45:29.055Z,100947.78
2023-03-20T08:47:56.825Z,100944.22
2023-03-20T08:50:24.655Z,100959.69
2023-03-20T08:52:52.468Z,100949.47
2023-03-20T08:55:20.186Z,100939.41
2023-03-20T08:57:48.167Z,100937.03
2023-03-20T09:00:17.363Z,100941.38
2023-03-20T09:02:46.514Z,100951.66
2023-03-20T09:05:14.429Z,100937.63
2023-03-20T09:07:42.184Z,100943.03
2023-03-20T09:10:11.438Z,100948.41
2023-03-20T09:12:39.389Z,100940.78
2023-03-20T09:15:08.180Z,100952.16
2023-03-20T09:17:35.962Z,100948.50
2023-03-20T09:20:06.584Z,100950.50
2023-03-20T09:22:34.370Z,100950.19
2023-03-20T09:25:02.066Z,100948.78
2023-03-20T09:27:45.527Z,100945.97
2023-03-20T09:30:34.649Z,100951.88
2023-03-20T09:33:02.587Z,100955.00
2023-03-20T09:35:32.331Z,100948.28
2023-03-20T09:38:00.052Z,100950.19
2023-03-20T09:40:30.606Z,100961.84
2023-03-20T09:43:03.804Z,100960.09
2023-03-20T09:45:41.930Z,100971.88
2023-03-20T09:48:16.063Z,100970.03
2023-03-20T09:50:50.306Z,100961.25
2023-03-20T09:53:22.043Z,100963.19
2023-03-20T09:55:50.360Z,100959.25
2023-03-20T09:58:22.366Z,100967.03
2023-03-20T10:00:50.277Z,100969.63
2023-03-20T10:03:20.538Z,100965.09
2023-03-20T10:05:53.537Z,100960.53
2023-03-20T10:08:25.002Z,100980.13
2023-03-20T10:10:55.234Z,100964.69
2023-03-20T10:16:40.995Z,100943.66
2023-03-20T10:19:18.038Z,100948.94
2023-03-20T10:21:49.589Z,100942.28
2023-03-20T10:24:21.259Z,100941.31
2023-03-20T10:26:53.105Z,100943.38
2023-03-20T10:29:28.759Z,100949.78
2023-03-20T10:32:00.431Z,100932.06
2023-03-20T10:34:41.536Z,100942.88
2023-03-20T10:37:22.265Z,100922.88
2023-03-20T10:39:56.390Z,100929.03
2023-03-20T10:42:27.702Z,100923.84
2023-03-20T10:44:57.954Z,100919.97
2023-03-20T10:47:28.537Z,100916.31
2023-03-20T10:49:59.347Z,100914.94
2023-03-20T10:52:32.372Z,100927.78
2023-03-20T10:55:02.433Z,100928.25
2023-03-20T10:57:32.119Z,100904.03
2023-03-20T11:00:00.874Z,100904.03
2023-03-20T11:05:25.633Z,100908.59
2023-03-20T11:08:02.923Z,100905.81
2023-03-20T11:10:33.406Z,100909.06
2023-03-20T11:13:13.048Z,100910.81
2023-03-20T11:15:41.176Z,100908.38
2023-03-20T11:18:14.449Z,100902.88
2023-03-20T11:20:46.816Z,100900.13
2023-03-20T11:23:18.984Z,100901.84
2023-03-20T11:25:51.498Z,100903.88
2023-03-20T11:28:28.359Z,100894.97
2023-03-20T11:31:04.853Z,100895.66
2023-03-20T11:33:33.696Z,100901.75
2023-03-20T11:36:01.510Z,100901.28
2023-03-20T11:38:31.339Z,100898.44
2023-03-20T11:40:59.078Z,100892.59
2023-03-20T11:43:30.592Z,100896.00
2023-03-20T11:46:00.707Z,100892.09
2023-03-20T11:48:38.484Z,100909.19
2023-03-20T11:51:08.686Z,100920.44
2023-03-20T11:53:40.640Z,100909.66
2023-03-20T11:56:11.897Z,100915.13
2023-03-20T11:58:47.647Z,100922.19
2023-03-20T12:01:15.685Z,100906.44
2023-03-20T12:03:55.492Z,100906.13
2023-03-20T12:06:26.347Z,100913.59
2023-03-20T12:09:00.575Z,100913.22
2023-03-20T12:11:46.550Z,100913.03
2023-03-20T12:14:21.069Z,100904.13
2023-03-20T12:16:51.161Z,100907.56
2023-03-20T12:19:21.809Z,100894.63
2023-03-20T12:21:55.351Z,100898.41
2023-03-20T12:24:31.274Z,100893.22
2023-03-20T12:27:02.188Z,100894.06
2023-03-20T12:29:32.893Z,100902.50
2023-03-20T12:32:04.305Z,100906.00
2023-03-20T12:34:35.689Z,100913.06
2023-03-20T12:37:03.379Z,100926.59
2023-03-20T12:39:36.461Z,100918.59
2023-03-20T12:42:10.657Z,100919.44
2023-03-20T12:44:40.883Z,100923.59
2023-03-20T12:47:18.043Z,100918.25
2023-03-20T12:49:54.229Z,100920.13
2023-03-20T12:52:30.727Z,100924.47
2023-03-20T12:55:25.729Z,100925.16
2023-03-20T12:58:07.467Z,100915.94
2023-03-20T13:00:38.521Z,100910.34
2023-03-20T13:03:11.958Z,100909.78
2023-03-20T13:05:46.570Z,100917.72
2023-03-20T13:08:32.484Z,100925.28
2023-03-20T13:11:04.449Z,100928.00
2023-03-20T13:13:35.005Z,100926.03
2023-03-20T13:16:11.164Z,100920.22
2023-03-20T13:18:48.614Z,100920.06
2023-03-20T13:21:21.032Z,100898.31
2023-03-20T13:23:53.923Z,100906.56
2023-03-20T13:26:30.697Z,100895.06
2023-03-20T13:29:03.609Z,100897.16
2023-03-20T13:31:38.163Z,100892.22
2023-03-20T13:34:14.198Z,100896.84
2023-03-20T13:39:32.930Z,100896.41
2023-03-20T13:42:02.983Z,100886.88
2023-03-20T13:44:31.703Z,100882.44
2023-03-20T13:47:02.275Z,100886.84
2023-03-20T13:49:35.804Z,100879.88
2023-03-20T13:52:08.300Z,100877.75
2023-03-20T13:54:47.895Z,100871.69
2023-03-20T13:57:27.513Z,100871.84
2023-03-20T14:00:00.625Z,100888.41
2023-03-20T14:02:55.048Z,100878.72
2023-03-20T14:05:44.831Z,100871.97
2023-03-20T14:08:32.547Z,100864.75
2023-03-20T14:11:13.160Z,100858.63
2023-03-20T14:13:45.397Z,100860.00
2023-03-20T14:16:16.055Z,100868.56
2023-03-20T14:18:44.964Z,100863.03
2023-03-20T14:21:14.813Z,100858.38
2023-03-20T14:23:47.054Z,100856.63
2023-03-20T14:26:21.885Z,100854.06
2023-03-20T14:29:00.838Z,100850.78
2023-03-20T14:31:34.176Z,100842.50
2023-03-20T14:34:14.268Z,100851.66
2023-03-20T14:36:47.231Z,100845.63
2023-03-20T14:39:27.477Z,100852.63
2023-03-20T14:42:02.027Z,100841.41
2023-03-20T14:44:39.937Z,100844.72
2023-03-20T14:47:16.918Z,100832.94
2023-03-20T14:49:51.857Z,100838.38
2023-03-20T14:52:34.895Z,100839.91
2023-03-20T14:55:30.440Z,100844.16
2023-03-20T14:57:58.580Z,100839.75
2023-03-20T15:00:30.024Z,100846.91
2023-03-20T15:03:06.667Z,100839.06
2023-03-20T15:05:36.414Z,100835.78
2023-03-20T15:08:06.456Z,100837.69
2023-03-20T15:10:37.329Z,100842.00
2023-03-20T15:13:06.738Z,100838.66
2023-03-20T15:15:55.933Z,100838.38
2023-03-20T15:18:25.488Z,100832.75
2023-03-20T15:20:53.729Z,100821.50
2023-03-20T15:23:21.494Z,100827.09
2023-03-20T15:25:50.722Z,100829.75
2023-03-20T15:28:21.352Z,100827.34
2023-03-20T15:30:51.062Z,100826.06
2023-03-20T15:33:24.722Z,100826.63
2023-03-20T15:35:52.905Z,100832.06
2023-03-20T15:38:20.940Z,100824.91
2023-03-20T15:40:51.451Z,100829.63
2023-03-20T15:43:21.684Z,100824.44
2023-03-20T15:45:50.742Z,100819.16
2023-03-20T15:48:25.932Z,100819.53
2023-03-20T15:50:56.316Z,100828.72
2023-03-20T15:53:28.338Z,100820.09
2023-03-20T15:56:16.983Z,100815.91
2023-03-20T15:58:46.660Z,100826.38
2023-03-20T16:01:18.935Z,100811.47
2023-03-20T16:03:48.647Z,100817.84
2023-03-20T16:06:20.748Z,100827.78
2023-03-20T16:08:58.365Z,100821.97
2023-03-20T16:11:26.817Z,100817.69
2023-03-20T16:13:55.703Z,100820.69
2023-03-20T16:16:25.134Z,100822.06
2023-03-20T16:18:54.455Z,100813.78
2023-03-20T16:21:24.700Z,100820.81
2023-03-20T16:23:54.707Z,100821.28
2023-03-20T16:26:24.448Z,100813.69
2023-03-20T16:28:54.334Z,100826.03
2023-03-20T16:31:24.144Z,100810.00
2023-03-20T16:33:52.076Z,100826.66
2023-03-20T16:36:23.824Z,100822.06
2023-03-20T16:39:19.668Z,100826.63
2023-03-20T16:41:50.201Z,100823.22
2023-03-20T16:44:19.846Z,100827.69
2023-03-20T16:47:00.754Z,100818.22
2023-03-20T16:49:51.566Z,100818.13
2023-03-20T16:52:43.303Z,100820.97
2023-03-20T16:55:17.735Z,100822.31
2023-03-20T16:57:48.327Z,100819.19
2023-03-20T17:00:27.477Z,100817.91
2023-03-20T17:03:08.319Z,100815.94
2023-03-20T17:05:50.639Z,100807.88
2023-03-20T17:08:28.791Z,100818.03
2023-03-20T17:11:00.023Z,100805.13
2023-03-20T17:13:27.732Z,100803.78
2023-03-20T17:15:55.907Z,100813.25
2023-03-20T17:18:24.113Z,100804.81
2023-03-20T17:20:52.139Z,100793.63
2023-03-20T17:23:23.792Z,100798.88
2023-03-20T17:25:51.844Z,100800.31
2023-03-20T17:28:21.957Z,100792.88
2023-03-20T17:30:51.515Z,100786.50
2023-03-20T17:33:21.091Z,100793.94
2023-03-20T17:35:49.711Z,100806.88
2023-03-20T17:38:19.937Z,100793.31
2023-03-20T17:40:50.121Z,100790.47
2023-03-20T17:43:19.511Z,100792.13
2023-03-20T17:45:48.427Z,100799.75
2023-03-20T17:48:18.088Z,100810.53
2023-03-20T17:50:46.593Z,100808.66
2023-03-20T17:53:16.892Z,100805.28
2023-03-20T17:55:44.738Z,100819.88
2023-03-20T17:58:18.413Z,100818.38
2023-03-20T18:00:46.349Z,100819.06
2023-03-20T18:03:15.323Z,100808.41
2023-03-20T18:05:43.265Z,100828.25
2023-03-20T18:08:14.612Z,100816.53
2023-03-20T18:10:43.097Z,100821.59
2023-03-20T18:13:10.878Z,100829.47
2023-03-20T18:15:40.861Z,100824.28
2023-03-20T18:18:08.983Z,100832.22
2023-03-20T18:20:38.528Z,100835.44
2023-03-20T18:23:06.432Z,100828.09
2023-03-20T18:25:34.166Z,100821.06
2023-03-20T18:28:03.404Z,100822.88
2023-03-20T18:30:34.923Z,100831.22
2023-03-20T18:33:04.465Z,100824.16
2023-03-20T18:35:33.015Z,100829.22
2023-03-20T18:38:00.754Z,100826.47
2023-03-20T18:40:30.230Z,100821.00
2023-03-20T18:42:58.598Z,100822.66
2023-03-20T18:45:28.120Z,100808.44
2023-03-20T18:47:57.138Z,100812.16
2023-03-20T18:50:27.786Z,100818.31
2023-03-20T18:52:56.838Z,100812.22
2023-03-20T18:55:25.821Z,100811.56
2023-03-20T18:57:53.520Z,100814.97
2023-03-20T19:00:23.266Z,100809.28
2023-03-20T19:02:52.060Z,100809.00
2023-03-20T19:05:20.431Z,100810.63
2023-03-20T19:07:50.294Z,100796.69
2023-03-20T19:10:27.314Z,100793.31
2023-03-20T19:12:56.590Z,100795.69
2023-03-20T19:15:29.529Z,100795.91
2023-03-20T19:17:58.361Z,100793.56
2023-03-20T19:20:36.142Z,100793.53
2023-03-20T19:23:07.054Z,100786.44
2023-03-20T19:25:36.285Z,100788.72
2023-03-20T19:28:05.479Z,100795.72
2023-03-20T19:30:35.125Z,100794.66
2023-03-20T19:33:03.605Z,100790.94
2023-03-20T19:36:02.360Z,100795.66
2023-03-20T19:38:22.939Z,100794.81
2023-03-20T19:40:53.048Z,100792.88
2023-03-20T19:43:21.780Z,100785.34
2023-03-20T19:45:51.943Z,100787.50
2023-03-20T19:48:21.080Z,100789.28
2023-03-20T19:50:51.212Z,100793.53
2023-03-20T19:53:21.426Z,100790.94
2023-03-20T19:55:50.717Z,100780.88
2023-03-20T19:58:18.655Z,100777.63
2023-03-20T20:01:12.177Z,100768.78
2023-03-20T20:03:38.035Z,100773.81
2023-03-20T20:06:06.113Z,100769.09
2023-03-20T20:08:46.922Z,100785.94
2023-03-20T20:11:17.599Z,100777.34
2023-03-20T20:14:07.114Z,100775.50
2023-03-20T20:16:34.848Z,100776.28
2023-03-20T20:19:02.679Z,100765.56
2023-03-20T20:24:18.148Z,100771.22
2023-03-20T20:26:55.477Z,100762.88
2023-03-20T20:29:31.236Z,100769.59
2023-03-20T20:32:01.770Z,100760.97
2023-03-20T20:40:06.455Z,100763.91
2023-03-20T20:42:37.081Z,100749.94
2023-03-20T20:45:05.894Z,100761.84
2023-03-20T20:47:33.859Z,100761.66
2023-03-20T20:50:03.870Z,100756.66
2023-03-20T20:52:31.688Z,100757.47
2023-03-20T20:55:18.195Z,100754.16
2023-03-20T20:57:49.351Z,100746.88
2023-03-20T21:00:18.421Z,100759.84
2023-03-20T21:02:46.213Z,100751.97
2023-03-20T21:05:15.291Z,100749.84
2023-03-20T21:07:44.115Z,100749.34
2023-03-20T21:10:14.197Z,100754.63
2023-03-20T21:12:57.782Z,100749.03
2023-03-20T21:15:27.572Z,100747.25
2023-03-20T21:18:01.234Z,100748.44
2023-03-20T21:20:30.064Z,100747.06
2023-03-20T21:22:57.733Z,100748.38
2023-03-20T21:25:39.287Z,100753.84
2023-03-20T21:28:08.790Z,100746.72
2023-03-20T21:30:44.136Z,100748.41
2023-03-20T21:33:18.706Z,100737.69
2023-03-20T21:35:46.586Z,100746.16
2023-03-20T21:41:08.566Z,100735.81
2023-03-20T21:43:36.260Z,100748.75
2023-03-20T21:46:37.486Z,100739.16
2023-03-20T21:55:05.903Z,100746.53
2023-03-20T21:57:55.679Z,100738.06
2023-03-20T22:02:59.630Z,100746.50
2023-03-20T22:09:19.835Z,100738.75
2023-03-20T22:14:54.627Z,100740.63
2023-03-20T22:23:15.225Z,100751.53
2023-03-20T22:25:53.011Z,100747.94
2023-03-20T22:40:03.243Z,100745.50
2023-03-20T22:45:00.575Z,100753.38
2023-03-20T22:47:30.468Z,100730.91
2023-03-20T22:49:58.155Z,100728.91
2023-03-20T22:52:38.339Z,100738.88
2023-03-20T22:55:14.896Z,100740.31
2023-03-20T22:57:53.025Z,100731.34
2023-03-20T23:00:30.614Z,100729.69
2023-03-20T23:03:11.471Z,100725.28
2023-03-20T23:05:43.441Z,100731.22
2023-03-20T23:08:13.152Z,100724.22
2023-03-20T23:10:43.986Z,100732.97
2023-03-20T23:13:11.772Z,100716.72
2023-03-20T23:15:39.628Z,100719.84
2023-03-20T23:18:07.703Z,100724.56
2023-03-20T23:20:36.405Z,100723.25
2023-03-20T23:23:04.181Z,100723.75
2023-03-20T23:25:39.296Z,100715.16
2023-03-20T23:28:08.468Z,100723.13
2023-03-20T23:31:07.368Z,100729.47
2023-03-20T23:33:24.345Z,100723.63
2023-03-20T23:36:01.207Z,100715.88
2023-03-20T23:38:32.933Z,100718.50
2023-03-20T23:41:01.990Z,100717.06
2023-03-20T23:43:29.991Z,100718.59
2023-03-20T23:45:57.889Z,100716.38
2023-03-20T23:48:25.926Z,100714.50
2023-03-20T23:50:53.920Z,100708.06
2023-03-20T23:53:21.641Z,100705.13
2023-03-20T23:58:16.937Z,100708.19
